Time;durP1;ratioP1;P1;durP2;ratioP2;P2;SDS_P1;SDS_P2;PMS_P1;PMS_P2;Temp;Humidity;BMP_temperature;BMP_pressure;BME280_temperature;BME280_humidity;BME280_pressure;Samples;Min_cycle;Max_cycle;Signal;HPM_P1;HPM_P2
2022/10/25 00:01:34;;;;;;;12.30;10.70;;;;;;;;;;4974198;28;20022;-73
2022/10/25 00:04:00;;;;;;;10.80;9.00;;;;;;;;;;4974871;28;20470;-74
2022/10/25 00:06:25;;;;;;;10.23;9.00;;;;;;;;;;4974418;28;20053;-72
2022/10/25 00:08:51;;;;;;;9.85;8.85;;;;;;;;;;4977522;28;20038;-71
2022/10/25 00:11:21;;;;;;;9.30;8.40;;;;;;;;;;4977889;28;20038;-71
2022/10/25 00:13:47;;;;;;;9.38;8.40;;;;;;;;;;4960685;28;20388;-73
2022/10/25 00:16:13;;;;;;;10.23;9.23;;;;;;;;;;4977892;28;20025;-73
2022/10/25 00:18:39;;;;;;;10.05;8.88;;;;;;;;;;4977933;28;20454;-73
2022/10/25 00:21:04;;;;;;;9.73;8.73;;;;;;;;;;4977655;28;20019;-72
2022/10/25 00:23:30;;;;;;;10.55;8.40;;;;;;;;;;4977660;28;20043;-73
2022/10/25 00:26:05;;;;;;;11.10;8.68;;;;;;;;;;4959959;28;20027;-74
2022/10/25 00:28:31;;;;;;;10.15;8.50;;;;;;;;;;4960365;28;20089;-72
2022/10/25 00:31:00;;;;;;;9.55;8.55;;;;;;;;;;4977498;28;20504;-71
2022/10/25 00:33:27;;;;;;;10.05;8.48;;;;;;;;;;4977384;28;20031;-71
2022/10/25 00:35:52;;;;;;;9.27;8.30;;;;;;;;;;4977603;28;20452;-72
2022/10/25 00:38:18;;;;;;;9.68;8.68;;;;;;;;;;4960116;28;20105;-73
2022/10/25 00:40:43;;;;;;;11.23;9.25;;;;;;;;;;4977094;28;20467;-73
2022/10/25 00:43:08;;;;;;;11.15;10.02;;;;;;;;;;4977001;28;20074;-72
2022/10/25 00:45:34;;;;;;;13.55;10.40;;;;;;;;;;4977352;28;20037;-71
2022/10/25 00:48:02;;;;;;;11.10;9.88;;;;;;;;;;4976893;28;20035;-73
2022/10/25 00:50:46;;;;;;;13.10;10.07;;;;;;;;;;4977267;28;20454;-73
2022/10/25 00:53:13;;;;;;;13.40;10.18;;;;;;;;;;4977098;28;20124;-72
2022/10/25 00:55:44;;;;;;;12.93;10.38;;;;;;;;;;4977159;28;20505;-73
2022/10/25 00:58:13;;;;;;;12.63;10.90;;;;;;;;;;4977021;28;20463;-73
2022/10/25 01:00:39;;;;;;;14.80;10.93;;;;;;;;;;4977253;28;20058;-72
2022/10/25 01:03:04;;;;;;;12.73;10.68;;;;;;;;;;4977040;28;20069;-73
2022/10/25 01:05:30;;;;;;;13.25;10.80;;;;;;;;;;4976916;28;20026;-73
2022/10/25 01:07:55;;;;;;;12.93;11.02;;;;;;;;;;4959485;28;20046;-73
2022/10/25 01:10:22;;;;;;;11.68;10.50;;;;;;;;;;4976774;28;20073;-72
2022/10/25 01:12:47;;;;;;;13.82;10.98;;;;;;;;;;4959198;28;20030;-71
2022/10/25 01:15:13;;;;;;;11.02;9.80;;;;;;;;;;4959223;28;20470;-71
2022/10/25 01:17:57;;;;;;;11.38;9.90;;;;;;;;;;4976066;28;20034;-72
2022/10/25 01:20:22;;;;;;;12.45;10.07;;;;;;;;;;4976321;28;20026;-72
2022/10/25 01:22:53;;;;;;;13.85;10.30;;;;;;;;;;4976279;28;20027;-72
2022/10/25 01:25:38;;;;;;;12.38;10.13;;;;;;;;;;4959015;28;20463;-74
2022/10/25 01:28:14;;;;;;;14.60;10.98;;;;;;;;;;4976592;28;20037;-72
2022/10/25 01:30:52;;;;;;;12.57;10.32;;;;;;;;;;4959284;28;20238;-72
2022/10/25 01:33:17;;;;;;;13.15;10.93;;;;;;;;;;4959144;28;20042;-71
2022/10/25 01:35:45;;;;;;;12.70;10.93;;;;;;;;;;4976257;28;20018;-71
2022/10/25 01:38:14;;;;;;;17.48;10.43;;;;;;;;;;4976505;28;20461;-71
2022/10/25 01:41:12;;;;;;;12.40;9.95;;;;;;;;;;4976122;28;20023;-72
2022/10/25 01:43:41;;;;;;;12.88;9.52;;;;;;;;;;4923286;28;20445;-71
2022/10/25 01:46:14;;;;;;;15.32;10.70;;;;;;;;;;4976113;28;20041;-71
2022/10/25 01:48:43;;;;;;;11.98;10.57;;;;;;;;;;4976076;28;20035;-70
2022/10/25 01:51:11;;;;;;;12.98;10.52;;;;;;;;;;4975892;28;20034;-71
2022/10/25 01:53:47;;;;;;;12.50;10.77;;;;;;;;;;4958639;28;20602;-69
2022/10/25 01:56:33;;;;;;;13.05;10.30;;;;;;;;;;4975916;28;20039;-70
2022/10/25 01:59:01;;;;;;;14.38;10.95;;;;;;;;;;4975487;28;20038;-72
2022/10/25 02:01:50;;;;;;;14.00;9.98;;;;;;;;;;4975853;28;20019;-73
2022/10/25 02:04:30;;;;;;;14.40;10.32;;;;;;;;;;4975991;28;20058;-73
2022/10/25 02:06:56;;;;;;;;;;;;;;;;;;4976514;28;20030;-73
2022/10/25 02:09:40;;;;;;;12.45;9.85;;;;;;;;;;4975868;28;20056;-71
2022/10/25 02:12:06;;;;;;;15.55;11.98;;;;;;;;;;4958342;28;20045;-73
2022/10/25 02:14:36;;;;;;;16.67;11.85;;;;;;;;;;4975734;28;20106;-72
2022/10/25 02:17:10;;;;;;;15.45;12.52;;;;;;;;;;4975541;28;20023;-73
2022/10/25 02:19:46;;;;;;;16.48;11.38;;;;;;;;;;4975940;28;20038;-73
2022/10/25 02:22:12;;;;;;;16.90;12.18;;;;;;;;;;4975605;28;20038;-74
2022/10/25 02:24:38;;;;;;;17.30;12.25;;;;;;;;;;4975517;28;20026;-72
2022/10/25 02:27:12;;;;;;;17.48;11.75;;;;;;;;;;4975142;28;20494;-73
2022/10/25 02:29:38;;;;;;;15.07;12.13;;;;;;;;;;4957503;28;20026;-72
2022/10/25 02:32:04;;;;;;;15.13;12.38;;;;;;;;;;4957887;28;20150;-72
2022/10/25 02:34:30;;;;;;;15.40;11.77;;;;;;;;;;4975690;28;20434;-73
2022/10/25 02:36:55;;;;;;;16.25;12.27;;;;;;;;;;4975073;28;20030;-72
2022/10/25 02:39:21;;;;;;;15.30;11.48;;;;;;;;;;4957402;28;20091;-72
2022/10/25 02:41:47;;;;;;;17.50;11.93;;;;;;;;;;4975361;28;20043;-72
2022/10/25 02:44:12;;;;;;;14.77;11.88;;;;;;;;;;4974895;28;20138;-71
2022/10/25 02:46:38;;;;;;;14.43;11.68;;;;;;;;;;4975457;28;20467;-71
2022/10/25 02:49:06;;;;;;;14.60;11.57;;;;;;;;;;4974898;28;20027;-72
2022/10/25 02:51:32;;;;;;;14.45;11.93;;;;;;;;;;4957870;28;20040;-71
2022/10/25 02:53:57;;;;;;;14.68;11.82;;;;;;;;;;4974817;28;20174;-72
2022/10/25 02:56:23;;;;;;;15.48;12.38;;;;;;;;;;4974755;28;20034;-72
2022/10/25 02:58:50;;;;;;;14.25;12.20;;;;;;;;;;4974858;28;20026;-72
2022/10/25 03:01:16;;;;;;;15.18;12.20;;;;;;;;;;4974743;28;20021;-72
2022/10/25 03:03:41;;;;;;;18.30;12.65;;;;;;;;;;4975066;28;20037;-72
2022/10/25 03:06:07;;;;;;;14.15;11.40;;;;;;;;;;4957780;28;20110;-72
2022/10/25 03:08:34;;;;;;;16.50;12.60;;;;;;;;;;4975327;28;20030;-74
2022/10/25 03:11:00;;;;;;;16.15;12.60;;;;;;;;;;4974717;28;20019;-74
2022/10/25 03:13:25;;;;;;;17.17;13.38;;;;;;;;;;4957475;28;20364;-73
2022/10/25 03:15:50;;;;;;;16.65;12.90;;;;;;;;;;4975092;28;20026;-74
2022/10/25 03:18:16;;;;;;;15.80;12.02;;;;;;;;;;4974638;28;20042;-73
2022/10/25 03:20:42;;;;;;;18.55;13.77;;;;;;;;;;4974977;28;20027;-74
2022/10/25 03:23:07;;;;;;;15.70;13.05;;;;;;;;;;4974968;28;20471;-73
2022/10/25 03:25:33;;;;;;;17.70;12.38;;;;;;;;;;4975160;28;20103;-72
2022/10/25 03:27:59;;;;;;;19.10;12.77;;;;;;;;;;4974999;28;20355;-73
2022/10/25 03:30:25;;;;;;;15.93;12.38;;;;;;;;;;4974726;28;20482;-75
2022/10/25 03:32:51;;;;;;;22.73;14.65;;;;;;;;;;4974365;28;20042;-72
2022/10/25 03:35:16;;;;;;;18.20;14.23;;;;;;;;;;4974776;28;20019;-73
2022/10/25 03:37:42;;;;;;;17.08;13.40;;;;;;;;;;4974781;28;20029;-71
2022/10/25 03:40:07;;;;;;;16.95;13.13;;;;;;;;;;4957790;28;20410;-72
2022/10/25 03:42:33;;;;;;;17.70;12.88;;;;;;;;;;4977785;28;20113;-72
2022/10/25 03:44:58;;;;;;;14.40;12.15;;;;;;;;;;4961436;28;20557;-73
2022/10/25 03:47:24;;;;;;;16.52;12.18;;;;;;;;;;4978788;28;20026;-72
2022/10/25 03:49:50;;;;;;;18.52;12.65;;;;;;;;;;4961087;28;20023;-73
2022/10/25 03:52:15;;;;;;;13.05;10.75;;;;;;;;;;4978203;28;20030;-72
2022/10/25 03:54:42;;;;;;;17.85;10.93;;;;;;;;;;4978253;28;20439;-73
2022/10/25 03:57:07;;;;;;;14.40;11.80;;;;;;;;;;4978501;28;20455;-73
2022/10/25 03:59:33;;;;;;;14.85;10.73;;;;;;;;;;4977911;28;20066;-74
2022/10/25 04:01:59;;;;;;;15.07;11.00;;;;;;;;;;4977499;28;20046;-72
2022/10/25 04:04:30;;;;;;;15.68;11.23;;;;;;;;;;4977637;28;20027;-74
2022/10/25 04:06:56;;;;;;;15.40;11.32;;;;;;;;;;4976983;28;20050;-74
2022/10/25 04:09:21;;;;;;;15.48;11.27;;;;;;;;;;4976931;28;20458;-72
2022/10/25 04:11:48;;;;;;;21.10;14.27;;;;;;;;;;4976945;28;20036;-73
2022/10/25 04:14:13;;;;;;;16.17;11.85;;;;;;;;;;4977241;28;20069;-74
2022/10/25 04:16:39;;;;;;;20.63;13.13;;;;;;;;;;4977625;28;20023;-73
2022/10/25 04:19:04;;;;;;;22.80;14.55;;;;;;;;;;4977508;28;20088;-75
2022/10/25 04:21:29;;;;;;;21.55;14.20;;;;;;;;;;4959654;28;20517;-72
2022/10/25 04:23:55;;;;;;;22.15;14.35;;;;;;;;;;4943893;28;20042;-73
2022/10/25 04:26:20;;;;;;;19.38;14.27;;;;;;;;;;4976376;28;20030;-73
2022/10/25 04:28:49;;;;;;;20.08;14.15;;;;;;;;;;4976903;28;20022;-74
2022/10/25 04:31:15;;;;;;;20.55;13.43;;;;;;;;;;4976189;28;20035;-73
2022/10/25 04:33:40;;;;;;;23.25;15.77;;;;;;;;;;4975391;28;20033;-73
2022/10/25 04:36:06;;;;;;;23.60;16.58;;;;;;;;;;4958150;28;20126;-72
2022/10/25 04:38:31;;;;;;;24.00;16.50;;;;;;;;;;4957961;28;20015;-74
2022/10/25 04:40:57;;;;;;;24.95;16.25;;;;;;;;;;4975681;28;20038;-73
2022/10/25 04:43:23;;;;;;;23.45;15.98;;;;;;;;;;4975560;28;20080;-72
2022/10/25 04:45:49;;;;;;;25.10;15.88;;;;;;;;;;4975451;28;20042;-73
2022/10/25 04:48:14;;;;;;;23.83;15.70;;;;;;;;;;4975413;28;20054;-71
2022/10/25 04:50:39;;;;;;;20.08;14.32;;;;;;;;;;4958245;28;20372;-74
2022/10/25 04:53:05;;;;;;;22.17;15.15;;;;;;;;;;4974385;28;20086;-72
2022/10/25 04:55:31;;;;;;;24.98;15.68;;;;;;;;;;4975065;28;20090;-72
2022/10/25 04:57:56;;;;;;;22.10;15.73;;;;;;;;;;4975560;28;20023;-72
2022/10/25 05:00:22;;;;;;;24.48;16.42;;;;;;;;;;4975621;28;20074;-74
2022/10/25 05:02:50;;;;;;;27.30;16.90;;;;;;;;;;4975594;28;20352;-72
2022/10/25 05:05:15;;;;;;;27.92;17.95;;;;;;;;;;4975544;28;20045;-72
2022/10/25 05:07:40;;;;;;;28.52;17.52;;;;;;;;;;4975492;28;20023;-71
2022/10/25 05:10:06;;;;;;;27.17;17.58;;;;;;;;;;4975453;28;20118;-69
2022/10/25 05:12:31;;;;;;;27.42;17.92;;;;;;;;;;4958107;28;20022;-70
2022/10/25 05:14:56;;;;;;;26.77;17.15;;;;;;;;;;4975368;28;20030;-70
2022/10/25 05:17:22;;;;;;;25.30;17.00;;;;;;;;;;4975266;28;20378;-71
2022/10/25 05:19:47;;;;;;;27.60;18.55;;;;;;;;;;4975380;28;20033;-69
2022/10/25 05:22:12;;;;;;;28.85;19.73;;;;;;;;;;4957808;28;20106;-69
2022/10/25 05:24:38;;;;;;;29.98;18.48;;;;;;;;;;4975355;28;20046;-70
2022/10/25 05:27:03;;;;;;;24.27;17.65;;;;;;;;;;4975235;28;20014;-70
2022/10/25 05:29:29;;;;;;;22.40;16.20;;;;;;;;;;4975131;28;20434;-70
2022/10/25 05:31:54;;;;;;;25.92;16.52;;;;;;;;;;4974625;28;20477;-70
2022/10/25 05:34:19;;;;;;;26.08;16.63;;;;;;;;;;4974989;28;20110;-70
2022/10/25 05:36:45;;;;;;;26.15;17.73;;;;;;;;;;4975223;28;20463;-69
2022/10/25 05:39:10;;;;;;;25.10;17.27;;;;;;;;;;4974900;28;20449;-70
2022/10/25 05:41:36;;;;;;;24.90;16.75;;;;;;;;;;4974495;28;20018;-70
2022/10/25 05:44:01;;;;;;;23.08;16.23;;;;;;;;;;4957271;28;20368;-70
2022/10/25 05:46:26;;;;;;;27.23;17.70;;;;;;;;;;4974771;28;20368;-70
2022/10/25 05:48:52;;;;;;;28.48;19.38;;;;;;;;;;4974718;28;20059;-69
2022/10/25 05:51:25;;;;;;;28.25;19.83;;;;;;;;;;4957030;28;20019;-70
2022/10/25 05:53:52;;;;;;;26.35;17.95;;;;;;;;;;4974621;28;20035;-70
2022/10/25 05:56:18;;;;;;;23.92;17.50;;;;;;;;;;4957391;28;20051;-70
2022/10/25 05:58:43;;;;;;;23.60;17.25;;;;;;;;;;4956996;28;20027;-69
2022/10/25 06:01:09;;;;;;;23.63;17.17;;;;;;;;;;4974488;28;20455;-69
2022/10/25 06:03:35;;;;;;;27.75;17.30;;;;;;;;;;4974455;28;20066;-70
2022/10/25 06:06:00;;;;;;;25.52;15.77;;;;;;;;;;4974863;28;20102;-70
2022/10/25 06:08:26;;;;;;;26.50;16.83;;;;;;;;;;4975513;28;20041;-70
2022/10/25 06:10:52;;;;;;;18.13;14.23;;;;;;;;;;4975381;28;20093;-70
2022/10/25 06:13:17;;;;;;;21.25;15.73;;;;;;;;;;4975110;28;20153;-69
2022/10/25 06:15:42;;;;;;;22.98;16.25;;;;;;;;;;4975017;28;20018;-69
2022/10/25 06:18:08;;;;;;;22.98;17.35;;;;;;;;;;4973832;28;20457;-70
2022/10/25 06:20:33;;;;;;;24.55;17.38;;;;;;;;;;4974469;28;20018;-69
2022/10/25 06:22:58;;;;;;;22.38;14.88;;;;;;;;;;4974543;28;20046;-69
2022/10/25 06:25:24;;;;;;;18.77;13.40;;;;;;;;;;4974466;28;20034;-69
2022/10/25 06:27:49;;;;;;;18.08;12.38;;;;;;;;;;4956939;28;20038;-70
2022/10/25 06:30:15;;;;;;;23.58;15.40;;;;;;;;;;4974409;28;20033;-69
2022/10/25 06:32:40;;;;;;;22.73;15.38;;;;;;;;;;4974907;28;20069;-70
2022/10/25 06:35:05;;;;;;;19.73;14.63;;;;;;;;;;4957682;28;20037;-69
2022/10/25 06:37:31;;;;;;;23.15;15.93;;;;;;;;;;4975157;28;20034;-69
2022/10/25 06:39:56;;;;;;;14.73;11.23;;;;;;;;;;4957773;28;20054;-75
2022/10/25 06:42:22;;;;;;;14.93;9.60;;;;;;;;;;4974468;28;20057;-70
2022/10/25 06:44:47;;;;;;;12.75;9.38;;;;;;;;;;4974949;28;20431;-70
2022/10/25 06:47:14;;;;;;;12.98;10.60;;;;;;;;;;4974327;28;20074;-70
2022/10/25 06:49:40;;;;;;;17.20;13.52;;;;;;;;;;4957315;28;20061;-70
2022/10/25 06:52:05;;;;;;;19.73;14.43;;;;;;;;;;4973503;28;20054;-71
2022/10/25 06:54:30;;;;;;;21.13;13.55;;;;;;;;;;4973750;28;20106;-70
2022/10/25 06:56:56;;;;;;;21.48;14.25;;;;;;;;;;4973710;28;20031;-70
2022/10/25 06:59:22;;;;;;;21.30;15.20;;;;;;;;;;4973702;28;20023;-70
2022/10/25 07:01:48;;;;;;;20.50;14.13;;;;;;;;;;4973742;28;20066;-70
2022/10/25 07:04:14;;;;;;;21.75;13.80;;;;;;;;;;4973645;28;20034;-70
2022/10/25 07:06:39;;;;;;;15.10;11.48;;;;;;;;;;4973739;28;20034;-71
2022/10/25 07:09:05;;;;;;;16.52;12.77;;;;;;;;;;4973955;28;20034;-71
2022/10/25 07:11:31;;;;;;;17.73;12.80;;;;;;;;;;4973516;28;20027;-71
2022/10/25 07:13:57;;;;;;;16.17;11.23;;;;;;;;;;4973434;28;20015;-70
2022/10/25 07:16:23;;;;;;;17.92;10.98;;;;;;;;;;4974682;28;20402;-71
2022/10/25 07:18:48;;;;;;;18.70;12.48;;;;;;;;;;4959985;28;20058;-70
2022/10/25 07:21:15;;;;;;;18.67;12.82;;;;;;;;;;4977479;28;20015;-70
2022/10/25 07:23:41;;;;;;;16.20;12.18;;;;;;;;;;4977125;28;20113;-70
2022/10/25 07:26:08;;;;;;;14.65;10.57;;;;;;;;;;4977392;28;20042;-70
2022/10/25 07:28:33;;;;;;;11.93;9.55;;;;;;;;;;4959743;28;20054;-71
2022/10/25 07:30:58;;;;;;;13.30;9.63;;;;;;;;;;4976700;28;20117;-71
2022/10/25 07:33:23;;;;;;;14.55;9.40;;;;;;;;;;4976838;28;20029;-70
2022/10/25 07:35:49;;;;;;;13.80;9.88;;;;;;;;;;4959715;28;20062;-70
2022/10/25 07:38:14;;;;;;;14.02;10.20;;;;;;;;;;4977068;28;20031;-70
2022/10/25 07:40:40;;;;;;;12.93;9.35;;;;;;;;;;4976974;28;20059;-70
2022/10/25 07:43:05;;;;;;;13.80;8.32;;;;;;;;;;4976532;28;20042;-71
2022/10/25 07:45:31;;;;;;;13.68;9.93;;;;;;;;;;4959281;28;20035;-71
2022/10/25 07:47:56;;;;;;;12.77;8.90;;;;;;;;;;4976951;28;20383;-70
2022/10/25 07:50:21;;;;;;;10.38;7.30;;;;;;;;;;4959413;28;20039;-71
2022/10/25 07:52:47;;;;;;;12.40;9.18;;;;;;;;;;4976406;28;20030;-70
2022/10/25 07:55:12;;;;;;;16.20;8.60;;;;;;;;;;4976488;28;20656;-70
2022/10/25 07:57:38;;;;;;;12.45;8.80;;;;;;;;;;4976786;28;20014;-70
2022/10/25 08:00:04;;;;;;;14.30;10.85;;;;;;;;;;4976703;28;20023;-71
2022/10/25 08:02:30;;;;;;;12.05;8.48;;;;;;;;;;4976534;28;20035;-72
2022/10/25 08:04:55;;;;;;;13.27;9.10;;;;;;;;;;4976653;28;20034;-71
2022/10/25 08:07:21;;;;;;;16.58;10.85;;;;;;;;;;4976629;28;20022;-72
2022/10/25 08:09:46;;;;;;;15.73;10.35;;;;;;;;;;4976267;28;20039;-71
2022/10/25 08:12:11;;;;;;;10.40;7.25;;;;;;;;;;4975712;28;20027;-71
2022/10/25 08:14:37;;;;;;;12.25;8.52;;;;;;;;;;4976039;28;20503;-70
2022/10/25 08:17:02;;;;;;;11.23;8.40;;;;;;;;;;4976189;28;20019;-71
2022/10/25 08:19:27;;;;;;;12.23;8.25;;;;;;;;;;4976398;28;20062;-71
2022/10/25 08:21:53;;;;;;;12.90;9.52;;;;;;;;;;4958620;28;20037;-70
2022/10/25 08:24:18;;;;;;;14.63;9.80;;;;;;;;;;4975660;28;20039;-71
2022/10/25 08:26:44;;;;;;;14.48;9.63;;;;;;;;;;4975871;28;20027;-71
2022/10/25 08:29:10;;;;;;;14.77;9.38;;;;;;;;;;4974987;28;20387;-70
2022/10/25 08:31:35;;;;;;;12.32;9.02;;;;;;;;;;4975793;28;20078;-71
2022/10/25 08:34:01;;;;;;;13.55;10.45;;;;;;;;;;4942394;28;20037;-70
2022/10/25 08:36:26;;;;;;;18.55;11.38;;;;;;;;;;4975509;28;20518;-71
2022/10/25 08:38:52;;;;;;;17.98;11.93;;;;;;;;;;4974916;28;20050;-71
2022/10/25 08:41:43;;;;;;;20.15;12.60;;;;;;;;;;4975769;28;20467;-71
2022/10/25 08:44:14;;;;;;;19.27;12.00;;;;;;;;;;4970803;28;20054;-70
2022/10/25 08:46:58;;;;;;;17.30;9.95;;;;;;;;;;4975728;28;20031;-71
2022/10/25 08:49:26;;;;;;;14.60;8.98;;;;;;;;;;4957606;28;20053;-71
2022/10/25 08:51:53;;;;;;;11.40;8.38;;;;;;;;;;4975626;28;20455;-70
2022/10/25 08:54:21;;;;;;;11.98;8.07;;;;;;;;;;4958182;28;20057;-71
2022/10/25 08:56:47;;;;;;;14.40;9.23;;;;;;;;;;4975562;28;20506;-70
2022/10/25 08:59:16;;;;;;;9.95;7.30;;;;;;;;;;4958256;28;20372;-70
2022/10/25 09:01:48;;;;;;;9.98;7.53;;;;;;;;;;4975342;28;20054;-70
2022/10/25 09:04:14;;;;;;;10.90;6.90;;;;;;;;;;4958087;28;20082;-71
2022/10/25 09:07:03;;;;;;;9.90;6.55;;;;;;;;;;4975313;28;20360;-70
2022/10/25 09:09:32;;;;;;;20.35;7.15;;;;;;;;;;4960831;28;20035;-70
2022/10/25 09:12:16;;;;;;;12.98;7.85;;;;;;;;;;4974946;28;20077;-75
2022/10/25 09:14:51;;;;;;;10.82;7.78;;;;;;;;;;4975175;28;20031;-71
2022/10/25 09:17:20;;;;;;;8.85;6.80;;;;;;;;;;4975209;28;20426;-73
2022/10/25 09:19:54;;;;;;;6.97;6.05;;;;;;;;;;4944198;28;20463;-73
2022/10/25 09:22:30;;;;;;;10.80;6.95;;;;;;;;;;4956001;29;20066;-74
2022/10/25 09:25:14;;;;;;;9.82;8.57;;;;;;;;;;4956025;29;20046;-72
2022/10/25 09:27:47;;;;;;;10.13;7.78;;;;;;;;;;4955648;29;20038;-73
2022/10/25 09:30:12;;;;;;;10.43;7.65;;;;;;;;;;4955433;29;20067;-72
2022/10/25 09:32:44;;;;;;;12.90;8.95;;;;;;;;;;4938091;29;20053;-74
2022/10/25 09:35:17;;;;;;;11.98;8.25;;;;;;;;;;4955408;29;20510;-73
2022/10/25 09:37:51;;;;;;;9.25;6.05;;;;;;;;;;4938256;29;20034;-74
2022/10/25 09:40:20;;;;;;;9.60;7.35;;;;;;;;;;4955224;28;20464;-74
2022/10/25 09:43:17;;;;;;;9.02;7.57;;;;;;;;;;4955005;28;20059;-74
2022/10/25 09:45:45;;;;;;;8.00;6.93;;;;;;;;;;4912510;29;20042;-74
2022/10/25 09:48:34;;;;;;;9.07;6.78;;;;;;;;;;4954903;29;20427;-72
2022/10/25 09:51:16;;;;;;;9.50;7.07;;;;;;;;;;4945384;29;20097;-72
2022/10/25 09:53:43;;;;;;;7.55;6.55;;;;;;;;;;4956313;29;20102;-74
2022/10/25 09:56:08;;;;;;;8.07;5.70;;;;;;;;;;4956135;29;20019;-71
2022/10/25 09:58:38;;;;;;;8.23;6.57;;;;;;;;;;4956276;29;20440;-74
2022/10/25 10:01:10;;;;;;;8.07;6.20;;;;;;;;;;4956228;29;20019;-73
2022/10/25 10:03:36;;;;;;;7.35;5.80;;;;;;;;;;4939423;29;20373;-74
2022/10/25 10:06:20;;;;;;;6.35;5.70;;;;;;;;;;4956780;29;20027;-72
2022/10/25 10:09:08;;;;;;;7.43;5.93;;;;;;;;;;4956384;29;20031;-74
2022/10/25 10:11:34;;;;;;;6.82;6.13;;;;;;;;;;4927337;29;20078;-73
2022/10/25 10:14:09;;;;;;;6.97;5.82;;;;;;;;;;4937540;29;20057;-73
2022/10/25 10:16:40;;;;;;;5.85;5.28;;;;;;;;;;4955495;29;20039;-72
2022/10/25 10:19:28;;;;;;;6.80;5.28;;;;;;;;;;4955474;29;20388;-74
2022/10/25 10:21:55;;;;;;;5.97;5.38;;;;;;;;;;4955416;29;20502;-73
2022/10/25 10:24:21;;;;;;;5.90;5.35;;;;;;;;;;4955800;29;20030;-73
2022/10/25 10:26:50;;;;;;;5.85;5.28;;;;;;;;;;4955941;29;20431;-73
2022/10/25 10:29:26;;;;;;;5.97;5.47;;;;;;;;;;4955793;29;20019;-73
2022/10/25 10:31:52;;;;;;;7.10;5.68;;;;;;;;;;4955801;29;20043;-73
2022/10/25 10:34:36;;;;;;;7.93;5.50;;;;;;;;;;4938757;29;20023;-74
2022/10/25 10:37:11;;;;;;;7.25;5.93;;;;;;;;;;4938611;29;20033;-72
2022/10/25 10:39:52;;;;;;;8.05;6.18;;;;;;;;;;4955677;29;20485;-72
2022/10/25 10:42:19;;;;;;;8.57;6.57;;;;;;;;;;5024420;28;20045;-74
2022/10/25 10:45:04;;;;;;;11.30;8.43;;;;;;;;;;5053622;28;20048;-73
2022/10/25 10:47:31;;;;;;;9.00;6.68;;;;;;;;;;5035609;28;20085;-72
2022/10/25 10:49:57;;;;;;;7.68;6.35;;;;;;;;;;5053445;28;20100;-72
2022/10/25 10:52:26;;;;;;;7.97;6.50;;;;;;;;;;5052819;28;20133;-74
2022/10/25 10:54:52;;;;;;;8.30;6.72;;;;;;;;;;5053497;28;20087;-71
2022/10/25 10:57:23;;;;;;;9.05;6.97;;;;;;;;;;5053473;28;20021;-73
2022/10/25 10:59:54;;;;;;;6.80;5.78;;;;;;;;;;5053044;28;20029;-72
2022/10/25 11:02:24;;;;;;;11.52;7.97;;;;;;;;;;5053413;28;20447;-72
2022/10/25 11:04:50;;;;;;;7.03;5.50;;;;;;;;;;5053404;28;20037;-72
2022/10/25 11:07:23;;;;;;;7.75;5.57;;;;;;;;;;5053397;28;20025;-72
2022/10/25 11:09:48;;;;;;;5.35;4.63;;;;;;;;;;5053356;28;20075;-73
2022/10/25 11:12:13;;;;;;;5.55;4.85;;;;;;;;;;5053252;28;20064;-72
2022/10/25 11:14:40;;;;;;;6.13;5.10;;;;;;;;;;5035541;28;20029;-72
2022/10/25 11:17:35;;;;;;;4.82;4.32;;;;;;;;;;5053299;28;20017;-74
2022/10/25 11:20:03;;;;;;;5.20;4.70;;;;;;;;;;5040335;28;20121;-72
2022/10/25 11:22:47;;;;;;;3.70;3.40;;;;;;;;;;5035376;28;20021;-72
2022/10/25 11:25:27;;;;;;;5.28;3.88;;;;;;;;;;5053286;28;20033;-72
2022/10/25 11:28:09;;;;;;;5.53;3.80;;;;;;;;;;5035253;28;20041;-74
2022/10/25 11:30:39;;;;;;;4.53;4.13;;;;;;;;;;5035360;28;20029;-72
2022/10/25 11:33:22;;;;;;;6.25;4.35;;;;;;;;;;5053029;28;20482;-72
2022/10/25 11:36:05;;;;;;;4.30;3.83;;;;;;;;;;5053051;28;20021;-72
2022/10/25 11:38:45;;;;;;;6.68;5.05;;;;;;;;;;5053070;28;20025;-74
2022/10/25 11:41:22;;;;;;;5.60;5.10;;;;;;;;;;5025065;28;20042;-72
2022/10/25 11:44:08;;;;;;;5.70;3.97;;;;;;;;;;5044297;28;20029;-73
2022/10/25 11:47:00;;;;;;;7.18;5.53;;;;;;;;;;5004643;28;20042;-73
2022/10/25 11:49:25;;;;;;;6.50;5.10;;;;;;;;;;5009890;28;20045;-72
2022/10/25 11:52:09;;;;;;;5.82;5.10;;;;;;;;;;5010771;28;20474;-74
2022/10/25 11:54:40;;;;;;;8.18;5.13;;;;;;;;;;5010345;28;20042;-72
2022/10/25 11:57:24;;;;;;;7.00;5.70;;;;;;;;;;5012061;28;20026;-73
2022/10/25 12:00:08;;;;;;;7.45;5.55;;;;;;;;;;5011967;28;20034;-73
2022/10/25 12:02:34;;;;;;;5.82;5.15;;;;;;;;;;5013596;28;20490;-73
2022/10/25 12:04:59;;;;;;;6.38;5.45;;;;;;;;;;5014388;28;20107;-73
2022/10/25 12:07:34;;;;;;;6.43;5.43;;;;;;;;;;5013865;28;20026;-74
2022/10/25 12:10:06;;;;;;;6.47;4.95;;;;;;;;;;5015470;28;20046;-73
2022/10/25 12:12:39;;;;;;;8.23;5.55;;;;;;;;;;5015269;28;20029;-74
2022/10/25 12:15:05;;;;;;;5.72;4.90;;;;;;;;;;5015581;28;20489;-75
2022/10/25 12:17:33;;;;;;;7.10;5.22;;;;;;;;;;5015468;28;20069;-72
2022/10/25 12:20:01;;;;;;;5.65;5.13;;;;;;;;;;5015168;28;20386;-73
2022/10/25 12:22:32;;;;;;;6.38;5.15;;;;;;;;;;5047176;28;20025;-74
2022/10/25 12:25:07;;;;;;;5.38;4.88;;;;;;;;;;5014171;28;20373;-73
2022/10/25 12:27:35;;;;;;;6.28;4.45;;;;;;;;;;5015304;28;20026;-72
2022/10/25 12:30:05;;;;;;;6.03;4.40;;;;;;;;;;5014947;28;20105;-73
2022/10/25 12:32:56;;;;;;;5.43;3.97;;;;;;;;;;5013865;28;20433;-72
2022/10/25 12:35:25;;;;;;;5.70;4.47;;;;;;;;;;5012730;28;20474;-72
2022/10/25 12:37:53;;;;;;;4.95;4.25;;;;;;;;;;5014845;28;20017;-73
2022/10/25 12:40:20;;;;;;;6.13;5.10;;;;;;;;;;5015108;28;20022;-74
2022/10/25 12:42:54;;;;;;;6.20;4.60;;;;;;;;;;5051315;28;20110;-72
2022/10/25 12:45:28;;;;;;;5.43;4.38;;;;;;;;;;5054312;28;20091;-73
2022/10/25 12:48:00;;;;;;;5.82;4.18;;;;;;;;;;5053950;28;20074;-73
2022/10/25 12:50:40;;;;;;;4.70;4.30;;;;;;;;;;5054608;28;20082;-73
2022/10/25 12:53:24;;;;;;;5.75;4.70;;;;;;;;;;5054490;28;20121;-74
2022/10/25 12:56:08;;;;;;;5.95;5.22;;;;;;;;;;5054245;28;20065;-73
2022/10/25 12:58:34;;;;;;;7.93;4.40;;;;;;;;;;5054478;28;20029;-74
2022/10/25 13:01:12;;;;;;;6.03;4.35;;;;;;;;;;5054162;28;20090;-74
2022/10/25 13:03:41;;;;;;;6.78;4.68;;;;;;;;;;5054375;28;20108;-74
2022/10/25 13:06:18;;;;;;;4.60;3.97;;;;;;;;;;5037293;28;20025;-74
2022/10/25 13:08:44;;;;;;;7.13;4.53;;;;;;;;;;5037356;28;20039;-74
2022/10/25 13:11:10;;;;;;;5.43;4.93;;;;;;;;;;5054735;28;20025;-74
2022/10/25 13:13:37;;;;;;;4.97;4.45;;;;;;;;;;5054115;28;20027;-72
2022/10/25 13:16:04;;;;;;;6.55;4.95;;;;;;;;;;5054919;28;20016;-74
2022/10/25 13:18:33;;;;;;;5.40;3.78;;;;;;;;;;5054825;28;20064;-74
2022/10/25 13:20:59;;;;;;;5.47;3.38;;;;;;;;;;5054037;28;20055;-74
2022/10/25 13:23:48;;;;;;;4.70;3.65;;;;;;;;;;5036353;28;20415;-75
2022/10/25 13:26:15;;;;;;;3.63;3.25;;;;;;;;;;5053901;28;20056;-79
2022/10/25 13:28:44;;;;;;;4.00;2.83;;;;;;;;;;5053330;28;20104;-79
2022/10/25 13:31:28;;;;;;;4.18;3.35;;;;;;;;;;5053493;28;20033;-79
2022/10/25 13:34:12;;;;;;;5.18;4.50;;;;;;;;;;5035013;28;20380;-76
2022/10/25 13:36:47;;;;;;;6.68;4.03;;;;;;;;;;5019053;28;20025;-78
2022/10/25 13:39:19;;;;;;;5.57;4.15;;;;;;;;;;5053759;28;20135;-75
2022/10/25 13:41:44;;;;;;;4.55;3.15;;;;;;;;;;5053359;28;20141;-76
2022/10/25 13:44:23;;;;;;;4.32;3.38;;;;;;;;;;5019315;28;20495;-74
2022/10/25 13:46:49;;;;;;;4.20;3.42;;;;;;;;;;5035560;28;20031;-76
2022/10/25 13:49:28;;;;;;;6.30;4.43;;;;;;;;;;5053214;28;20025;-74
2022/10/25 13:52:20;;;;;;;8.30;5.30;;;;;;;;;;5052729;28;20036;-74
2022/10/25 13:54:47;;;;;;;5.65;4.10;;;;;;;;;;5049894;28;20534;-73
2022/10/25 13:57:31;;;;;;;5.18;3.72;;;;;;;;;;5053377;28;20104;-72
2022/10/25 13:59:58;;;;;;;6.35;4.25;;;;;;;;;;5053356;28;20029;-72
2022/10/25 14:02:23;;;;;;;6.30;4.28;;;;;;;;;;5053153;28;20025;-73
2022/10/25 14:04:49;;;;;;;6.40;4.88;;;;;;;;;;5034818;28;20040;-74
2022/10/25 14:07:33;;;;;;;4.95;4.43;;;;;;;;;;5052806;28;20032;-73
2022/10/25 14:09:59;;;;;;;3.75;3.45;;;;;;;;;;5053026;28;20508;-74
2022/10/25 14:12:26;;;;;;;4.47;3.67;;;;;;;;;;5052204;28;20025;-74
2022/10/25 14:14:56;;;;;;;9.18;4.03;;;;;;;;;;5051862;28;20119;-72
2022/10/25 14:17:30;;;;;;;5.78;3.63;;;;;;;;;;5052628;28;20032;-74
2022/10/25 14:19:56;;;;;;;5.25;4.75;;;;;;;;;;5052102;28;20500;-73
2022/10/25 14:22:29;;;;;;;5.72;4.63;;;;;;;;;;5051913;28;20024;-73
2022/10/25 14:24:54;;;;;;;5.97;4.57;;;;;;;;;;5052373;28;20484;-72
2022/10/25 14:27:29;;;;;;;15.65;10.93;;;;;;;;;;5051400;28;20055;-74
2022/10/25 14:30:13;;;;;;;15.43;12.55;;;;;;;;;;5051472;28;20035;-74
2022/10/25 14:32:46;;;;;;;8.38;6.72;;;;;;;;;;5051351;28;20056;-73
2022/10/25 14:35:11;;;;;;;8.15;4.80;;;;;;;;;;5033690;28;20032;-74
2022/10/25 14:37:41;;;;;;;6.10;4.30;;;;;;;;;;5051998;28;20021;-74
2022/10/25 14:40:14;;;;;;;7.00;4.97;;;;;;;;;;5034082;28;20029;-73
2022/10/25 14:42:40;;;;;;;7.65;6.75;;;;;;;;;;5034323;28;20303;-73